Time;durP1;ratioP1;P1;durP2;ratioP2;P2;SDS_P1;SDS_P2;PMS_P1;PMS_P2;Temp;Humidity;BMP_temperature;BMP_pressure;BME280_temperature;BME280_humidity;BME280_pressure;Samples;Min_cycle;Max_cycle;Signal;HPM_P1;HPM_P2
2022/08/20 21:45:18;;;;;;;5.70;2.92;;;;;;;30.14;34.29;98168.75;5358253;23;20265;-89
2022/08/20 21:47:43;;;;;;;6.15;2.60;;;;;;;30.12;34.68;98174.38;5210333;23;20055;-92
2022/08/20 21:50:09;;;;;;;4.57;3.00;;;;;;;30.12;34.88;98162.81;4945387;29;20042;-91
2022/08/20 21:55:10;;;;;;;7.75;2.95;;;;;;;30.00;37.95;98164.88;5537243;23;20076;-93
2022/08/20 21:57:35;;;;;;;7.38;3.20;;;;;;;29.95;39.04;98169.16;5010071;28;20030;-91
2022/08/20 22:00:11;;;;;;;11.15;3.78;;;;;;;29.91;41.06;98189.56;4995457;28;20038;-91
2022/08/20 22:02:36;;;;;;;9.40;4.03;;;;;;;29.78;43.59;98198.84;4966515;28;20560;-89
2022/08/20 22:05:02;;;;;;;12.80;4.40;;;;;;;29.66;44.03;98197.38;4990192;28;20022;-91
2022/08/20 22:07:28;;;;;;;11.90;3.80;;;;;;;29.63;45.07;98212.16;4977286;28;20490;-92
2022/08/20 22:09:53;;;;;;;10.38;4.35;;;;;;;29.23;46.39;98210.66;4976584;28;20092;-87
2022/08/20 22:12:21;;;;;;;14.32;4.60;;;;;;;29.16;46.88;98221.56;4993403;28;20450;-87
2022/08/20 22:14:46;;;;;;;13.57;4.07;;;;;;;29.14;46.89;98225.56;4960048;28;20110;-83
2022/08/20 22:17:12;;;;;;;12.50;4.10;;;;;;;29.15;47.40;98224.50;4959723;28;20058;-83
2022/08/20 22:19:38;;;;;;;10.98;3.80;;;;;;;29.09;47.44;98199.44;4975259;28;20046;-83
2022/08/20 22:22:04;;;;;;;7.57;3.90;;;;;;;28.97;48.12;98206.81;4975563;28;20026;-83
2022/08/20 22:24:29;;;;;;;14.77;3.50;;;;;;;29.01;47.90;98208.75;4959298;28;20038;-83
2022/08/20 22:26:55;;;;;;;9.73;3.53;;;;;;;28.92;47.40;98202.19;4959908;28;20461;-83
2022/08/20 22:29:20;;;;;;;8.25;3.58;;;;;;;28.75;48.30;98193.38;4975698;28;20031;-83
2022/08/20 22:31:46;;;;;;;11.75;3.40;;;;;;;28.69;48.42;98189.81;4975572;28;20061;-83
2022/08/20 22:34:13;;;;;;;8.35;3.75;;;;;;;28.73;48.49;98195.50;4959238;28;20038;-83
2022/08/20 22:36:39;;;;;;;6.55;3.65;;;;;;;28.71;48.21;98192.25;4959661;28;20132;-83
2022/08/20 22:39:04;;;;;;;5.43;3.30;;;;;;;28.76;49.19;98201.19;4959392;28;20043;-83
2022/08/20 22:41:30;;;;;;;6.70;3.33;;;;;;;28.75;48.84;98201.44;4974981;28;20034;-83
2022/08/20 22:43:55;;;;;;;6.20;3.40;;;;;;;28.76;49.00;98200.38;4974923;28;20046;-85
2022/08/20 22:46:21;;;;;;;5.28;3.20;;;;;;;28.69;48.65;98197.88;4959648;28;20089;-89
2022/08/20 22:48:46;;;;;;;7.20;3.35;;;;;;;28.72;48.28;98197.38;4959388;28;20030;-87
2022/08/20 22:51:17;;;;;;;5.32;3.08;;;;;;;28.60;47.92;98197.47;4959558;28;20038;-89
2022/08/20 22:53:44;;;;;;;5.55;3.00;;;;;;;28.57;47.54;98206.00;4975602;28;20065;-87
2022/08/20 22:56:09;;;;;;;4.50;3.00;;;;;;;28.47;47.98;98214.72;4942274;28;20047;-86
2022/08/20 22:58:35;;;;;;;5.38;2.97;;;;;;;28.38;48.38;98207.34;4956390;28;20470;-87
2022/08/20 23:01:03;;;;;;;4.45;3.00;;;;;;;28.29;48.79;98217.66;4924108;28;20054;-86
2022/08/20 23:03:29;;;;;;;5.30;2.85;;;;;;;28.27;48.75;98222.47;4956368;28;20105;-86
2022/08/20 23:05:54;;;;;;;4.68;3.10;;;;;;;28.26;48.69;98213.63;4940282;28;20479;-86
2022/08/20 23:08:20;;;;;;;6.45;3.03;;;;;;;28.25;48.30;98217.34;4939285;28;20068;-84
2022/08/20 23:10:45;;;;;;;4.55;2.60;;;;;;;28.17;48.03;98220.44;4973416;28;20505;-85
2022/08/20 23:13:11;;;;;;;5.60;2.70;;;;;;;28.13;48.29;98216.63;4924518;28;20408;-84
2022/08/20 23:15:37;;;;;;;10.23;3.50;;;;;;;28.09;48.03;98207.44;4955986;28;20414;-83
2022/08/20 23:18:06;;;;;;;4.25;2.47;;;;;;;28.05;47.59;98195.56;4924221;28;20466;-84
2022/08/20 23:20:31;;;;;;;3.90;2.90;;;;;;;27.99;47.95;98197.38;4924651;28;20023;-85
2022/08/20 23:22:57;;;;;;;5.70;3.15;;;;;;;27.94;47.77;98190.06;4924165;28;20043;-85
2022/08/20 23:25:22;;;;;;;6.68;3.05;;;;;;;27.87;47.51;98178.63;4940359;28;20065;-84
2022/08/20 23:27:49;;;;;;;7.10;3.25;;;;;;;27.84;47.41;98179.09;4939903;28;20403;-85
2022/08/20 23:30:16;;;;;;;8.03;3.47;;;;;;;27.78;47.46;98172.03;4924745;28;20125;-86
2022/08/20 23:32:42;;;;;;;10.35;3.53;;;;;;;27.76;47.47;98169.59;4924287;28;20340;-84
2022/08/20 23:35:08;;;;;;;6.13;3.83;;;;;;;27.71;47.54;98172.19;4965814;28;20031;-86
2022/08/20 23:37:36;;;;;;;10.77;3.70;;;;;;;27.68;47.85;98177.22;4954578;28;20035;-86
2022/08/20 23:40:02;;;;;;;;;;;;;;;27.63;47.63;98177.97;4970458;28;20086;-85
2022/08/20 23:42:27;;;;;;;11.25;3.85;;;;;;;27.58;47.74;98170.63;4955744;28;19949;-87
2022/08/20 23:44:53;;;;;;;9.18;4.00;;;;;;;27.60;47.78;98181.13;4939525;28;20114;-86
2022/08/20 23:47:19;;;;;;;6.72;3.45;;;;;;;27.54;47.96;98163.31;4973091;28;20039;-87
2022/08/20 23:49:45;;;;;;;7.93;3.92;;;;;;;27.58;47.77;98177.88;4973164;28;20138;-86
2022/08/20 23:52:10;;;;;;;8.23;3.75;;;;;;;27.51;47.35;98161.13;4957028;28;20410;-91
2022/08/20 23:54:36;;;;;;;7.13;3.22;;;;;;;27.50;47.18;98152.28;4958956;28;20487;-90
2022/08/20 23:57:01;;;;;;;7.47;4.05;;;;;;;27.48;47.47;98146.31;4943289;28;20474;-88
2022/08/20 23:59:27;;;;;;;11.43;3.40;;;;;;;27.50;47.39;98132.69;4958829;28;20065;-91
